sensor_id;sensor_type;location;lat;lon;timestamp;pressure;altitude;pressure_sealevel;temperature;humidity
76424;BME280;65257;52.104;4.268;2023-07-09T00:00:20;56264.09;;;-142.31;100.00
76424;BME280;65257;52.104;4.268;2023-07-09T00:02:45;56264.09;;;-142.31;100.00
76424;BME280;65257;52.104;4.268;2023-07-09T00:05:14;56264.09;;;-142.31;100.00
76424;BME280;65257;52.104;4.268;2023-07-09T00:07:40;56264.09;;;-142.31;100.00
76424;BME280;65257;52.104;4.268;2023-07-09T00:10:20;56264.09;;;-142.31;100.00
76424;BME280;65257;52.104;4.268;2023-07-09T00:12:46;56264.09;;;-142.31;100.00
76424;BME280;65257;52.104;4.268;2023-07-09T00:15:16;56264.09;;;-142.31;100.00
76424;BME280;65257;52.104;4.268;2023-07-09T00:17:44;56264.09;;;-142.31;100.00
76424;BME280;65257;52.104;4.268;2023-07-09T00:20:15;56264.09;;;-142.31;100.00
76424;BME280;65257;52.104;4.268;2023-07-09T00:22:42;56264.09;;;-142.31;100.00
76424;BME280;65257;52.104;4.268;2023-07-09T00:25:13;56264.09;;;-142.31;100.00
76424;BME280;65257;52.104;4.268;2023-07-09T00:27:42;56264.09;;;-142.31;100.00
76424;BME280;65257;52.104;4.268;2023-07-09T00:30:20;56264.09;;;-142.31;100.00
76424;BME280;65257;52.104;4.268;2023-07-09T00:32:50;56264.09;;;-142.31;100.00
76424;BME280;65257;52.104;4.268;2023-07-09T00:35:18;56264.09;;;-142.31;100.00
76424;BME280;65257;52.104;4.268;2023-07-09T00:37:45;56264.09;;;-142.31;100.00
76424;BME280;65257;52.104;4.268;2023-07-09T00:40:17;56264.09;;;-142.31;100.00
76424;BME280;65257;52.104;4.268;2023-07-09T00:42:52;56264.09;;;-142.31;100.00
76424;BME280;65257;52.104;4.268;2023-07-09T00:45:24;56264.09;;;-142.31;100.00
76424;BME280;65257;52.104;4.268;2023-07-09T00:48:06;56264.09;;;-142.31;100.00
76424;BME280;65257;52.104;4.268;2023-07-09T00:50:42;56264.09;;;-142.31;100.00
76424;BME280;65257;52.104;4.268;2023-07-09T00:53:33;56264.09;;;-142.31;100.00
76424;BME280;65257;52.104;4.268;2023-07-09T00:56:08;56264.09;;;-142.31;100.00
76424;BME280;65257;52.104;4.268;2023-07-09T00:58:38;56264.09;;;-142.31;100.00
76424;BME280;65257;52.104;4.268;2023-07-09T01:01:09;56264.09;;;-142.31;100.00
76424;BME280;65257;52.104;4.268;2023-07-09T01:03:48;56264.09;;;-142.31;100.00
76424;BME280;65257;52.104;4.268;2023-07-09T01:06:23;56264.09;;;-142.31;100.00
76424;BME280;65257;52.104;4.268;2023-07-09T01:08:55;56264.09;;;-142.31;100.00
76424;BME280;65257;52.104;4.268;2023-07-09T01:11:24;56264.09;;;-142.31;100.00
76424;BME280;65257;52.104;4.268;2023-07-09T01:13:54;56264.09;;;-142.31;100.00
76424;BME280;65257;52.104;4.268;2023-07-09T01:16:25;56264.09;;;-142.31;100.00
76424;BME280;65257;52.104;4.268;2023-07-09T01:18:52;56264.09;;;-142.31;100.00
76424;BME280;65257;52.104;4.268;2023-07-09T01:21:19;56264.09;;;-142.31;100.00
76424;BME280;65257;52.104;4.268;2023-07-09T01:23:48;56264.09;;;-142.31;100.00
76424;BME280;65257;52.104;4.268;2023-07-09T01:26:22;56264.09;;;-142.31;100.00
76424;BME280;65257;52.104;4.268;2023-07-09T01:28:57;56264.09;;;-142.31;100.00
76424;BME280;65257;52.104;4.268;2023-07-09T01:31:23;56264.09;;;-142.31;100.00
76424;BME280;65257;52.104;4.268;2023-07-09T01:33:49;56264.09;;;-142.31;100.00
76424;BME280;65257;52.104;4.268;2023-07-09T01:36:19;56264.09;;;-142.31;100.00
76424;BME280;65257;52.104;4.268;2023-07-09T01:38:48;56264.09;;;-142.31;100.00
76424;BME280;65257;52.104;4.268;2023-07-09T01:41:15;56264.09;;;-142.31;100.00
76424;BME280;65257;52.104;4.268;2023-07-09T01:43:47;56264.09;;;-142.31;100.00
76424;BME280;65257;52.104;4.268;2023-07-09T01:46:12;56264.09;;;-142.31;100.00
76424;BME280;65257;52.104;4.268;2023-07-09T01:48:42;56264.09;;;-142.31;100.00
76424;BME280;65257;52.104;4.268;2023-07-09T01:51:14;56264.09;;;-142.31;100.00
76424;BME280;65257;52.104;4.268;2023-07-09T01:53:42;56264.09;;;-142.31;100.00
76424;BME280;65257;52.104;4.268;2023-07-09T01:56:11;56264.09;;;-142.31;100.00
76424;BME280;65257;52.104;4.268;2023-07-09T01:58:37;56264.09;;;-142.31;100.00
76424;BME280;65257;52.104;4.268;2023-07-09T02:01:12;56264.09;;;-142.31;100.00
76424;BME280;65257;52.104;4.268;2023-07-09T02:03:40;56264.09;;;-142.31;100.00
76424;BME280;65257;52.104;4.268;2023-07-09T02:06:05;56264.09;;;-142.31;100.00
76424;BME280;65257;52.104;4.268;2023-07-09T02:08:35;56264.09;;;-142.31;100.00
76424;BME280;65257;52.104;4.268;2023-07-09T02:11:01;56264.09;;;-142.31;100.00
76424;BME280;65257;52.104;4.268;2023-07-09T02:13:30;56264.09;;;-142.31;100.00
76424;BME280;65257;52.104;4.268;2023-07-09T02:16:02;56264.09;;;-142.31;100.00
76424;BME280;65257;52.104;4.268;2023-07-09T02:18:30;56264.09;;;-142.31;100.00
76424;BME280;65257;52.104;4.268;2023-07-09T02:20:56;56264.09;;;-142.31;100.00
76424;BME280;65257;52.104;4.268;2023-07-09T02:23:27;56264.09;;;-142.31;100.00
76424;BME280;65257;52.104;4.268;2023-07-09T02:25:53;56264.09;;;-142.31;100.00
76424;BME280;65257;52.104;4.268;2023-07-09T02:28:19;56264.09;;;-142.31;100.00
76424;BME280;65257;52.104;4.268;2023-07-09T02:31:08;56264.09;;;-142.31;100.00
76424;BME280;65257;52.104;4.268;2023-07-09T02:33:33;56264.09;;;-142.31;100.00
76424;BME280;65257;52.104;4.268;2023-07-09T02:36:01;56264.09;;;-142.31;100.00
76424;BME280;65257;52.104;4.268;2023-07-09T02:38:30;56264.09;;;-142.31;100.00
76424;BME280;65257;52.104;4.268;2023-07-09T02:40:56;56264.09;;;-142.31;100.00
76424;BME280;65257;52.104;4.268;2023-07-09T02:43:25;56264.09;;;-142.31;100.00
76424;BME280;65257;52.104;4.268;2023-07-09T02:45:51;56264.09;;;-142.31;100.00
76424;BME280;65257;52.104;4.268;2023-07-09T02:48:16;56264.09;;;-142.31;100.00
76424;BME280;65257;52.104;4.268;2023-07-09T02:50:42;56264.09;;;-142.31;100.00
76424;BME280;65257;52.104;4.268;2023-07-09T02:53:12;56264.09;;;-142.31;100.00
76424;BME280;65257;52.104;4.268;2023-07-09T02:55:39;56264.09;;;-142.31;100.00
76424;BME280;65257;52.104;4.268;2023-07-09T02:58:04;56264.09;;;-142.31;100.00
76424;BME280;65257;52.104;4.268;2023-07-09T03:00:32;56264.09;;;-142.31;100.00
76424;BME280;65257;52.104;4.268;2023-07-09T03:02:57;56264.09;;;-142.31;100.00
76424;BME280;65257;52.104;4.268;2023-07-09T03:05:25;56264.09;;;-142.31;100.00
76424;BME280;65257;52.104;4.268;2023-07-09T03:07:53;56264.09;;;-142.31;100.00
76424;BME280;65257;52.104;4.268;2023-07-09T03:10:21;56264.09;;;-142.31;100.00
76424;BME280;65257;52.104;4.268;2023-07-09T03:12:47;56264.09;;;-142.31;100.00
76424;BME280;65257;52.104;4.268;2023-07-09T03:15:16;56264.09;;;-142.31;100.00
76424;BME280;65257;52.104;4.268;2023-07-09T03:17:43;56264.09;;;-142.31;100.00
76424;BME280;65257;52.104;4.268;2023-07-09T03:20:11;56264.09;;;-142.31;100.00
76424;BME280;65257;52.104;4.268;2023-07-09T03:22:38;56264.09;;;-142.31;100.00
76424;BME280;65257;52.104;4.268;2023-07-09T03:25:07;56264.09;;;-142.31;100.00
76424;BME280;65257;52.104;4.268;2023-07-09T03:27:32;56264.09;;;-142.31;100.00
76424;BME280;65257;52.104;4.268;2023-07-09T03:29:57;56264.09;;;-142.31;100.00
76424;BME280;65257;52.104;4.268;2023-07-09T03:32:26;56264.09;;;-142.31;100.00
76424;BME280;65257;52.104;4.268;2023-07-09T03:34:55;56264.09;;;-142.31;100.00
76424;BME280;65257;52.104;4.268;2023-07-09T03:37:23;56264.09;;;-142.31;100.00
76424;BME280;65257;52.104;4.268;2023-07-09T03:39:57;56264.09;;;-142.31;100.00
76424;BME280;65257;52.104;4.268;2023-07-09T03:42:29;56264.09;;;-142.31;100.00
76424;BME280;65257;52.104;4.268;2023-07-09T03:44:54;56264.09;;;-142.31;100.00
76424;BME280;65257;52.104;4.268;2023-07-09T03:47:28;56264.09;;;-142.31;100.00
76424;BME280;65257;52.104;4.268;2023-07-09T03:49:54;56264.09;;;-142.31;100.00
76424;BME280;65257;52.104;4.268;2023-07-09T03:52:21;56264.09;;;-142.31;100.00
76424;BME280;65257;52.104;4.268;2023-07-09T03:54:50;56264.09;;;-142.31;100.00
76424;BME280;65257;52.104;4.268;2023-07-09T03:57:18;56264.09;;;-142.31;100.00
76424;BME280;65257;52.104;4.268;2023-07-09T03:59:44;56264.09;;;-142.31;100.00
76424;BME280;65257;52.104;4.268;2023-07-09T04:02:10;56264.09;;;-142.31;100.00
76424;BME280;65257;52.104;4.268;2023-07-09T04:04:36;56264.09;;;-142.31;100.00
76424;BME280;65257;52.104;4.268;2023-07-09T04:07:03;56264.09;;;-142.31;100.00
76424;BME280;65257;52.104;4.268;2023-07-09T04:09:29;56264.09;;;-142.31;100.00
76424;BME280;65257;52.104;4.268;2023-07-09T04:11:56;56264.09;;;-142.31;100.00
76424;BME280;65257;52.104;4.268;2023-07-09T04:14:25;56264.09;;;-142.31;100.00
76424;BME280;65257;52.104;4.268;2023-07-09T04:16:51;56264.09;;;-142.31;100.00
76424;BME280;65257;52.104;4.268;2023-07-09T04:19:18;56264.09;;;-142.31;100.00
76424;BME280;65257;52.104;4.268;2023-07-09T04:21:45;56264.09;;;-142.31;100.00
76424;BME280;65257;52.104;4.268;2023-07-09T04:24:31;56264.09;;;-142.31;100.00
76424;BME280;65257;52.104;4.268;2023-07-09T04:26:58;56264.09;;;-142.31;100.00
76424;BME280;65257;52.104;4.268;2023-07-09T04:29:34;56264.09;;;-142.31;100.00
76424;BME280;65257;52.104;4.268;2023-07-09T04:32:04;56264.09;;;-142.31;100.00
76424;BME280;65257;52.104;4.268;2023-07-09T04:34:33;56264.09;;;-142.31;100.00
76424;BME280;65257;52.104;4.268;2023-07-09T04:36:59;56264.09;;;-142.31;100.00
76424;BME280;65257;52.104;4.268;2023-07-09T04:39:34;56264.09;;;-142.31;100.00
76424;BME280;65257;52.104;4.268;2023-07-09T04:42:01;56264.09;;;-142.31;100.00
76424;BME280;65257;52.104;4.268;2023-07-09T04:44:29;56264.09;;;-142.31;100.00
76424;BME280;65257;52.104;4.268;2023-07-09T04:46:56;56264.09;;;-142.31;100.00
76424;BME280;65257;52.104;4.268;2023-07-09T04:49:23;56264.09;;;-142.31;100.00
76424;BME280;65257;52.104;4.268;2023-07-09T04:51:49;56264.09;;;-142.31;100.00
76424;BME280;65257;52.104;4.268;2023-07-09T04:54:15;56264.09;;;-142.31;100.00
76424;BME280;65257;52.104;4.268;2023-07-09T04:56:41;56264.09;;;-142.31;100.00
76424;BME280;65257;52.104;4.268;2023-07-09T04:59:12;56264.09;;;-142.31;100.00
76424;BME280;65257;52.104;4.268;2023-07-09T05:01:38;56264.09;;;-142.31;100.00
76424;BME280;65257;52.104;4.268;2023-07-09T05:04:24;56264.09;;;-142.31;100.00
76424;BME280;65257;52.104;4.268;2023-07-09T05:06:58;56264.09;;;-142.31;100.00
76424;BME280;65257;52.104;4.268;2023-07-09T05:09:25;56264.09;;;-142.31;100.00
76424;BME280;65257;52.104;4.268;2023-07-09T05:11:54;56264.09;;;-142.31;100.00
76424;BME280;65257;52.104;4.268;2023-07-09T05:14:26;56264.09;;;-142.31;100.00
76424;BME280;65257;52.104;4.268;2023-07-09T05:16:51;56264.09;;;-142.31;100.00
76424;BME280;65257;52.104;4.268;2023-07-09T05:19:18;56264.09;;;-142.31;100.00
76424;BME280;65257;52.104;4.268;2023-07-09T05:21:43;56264.09;;;-142.31;100.00
76424;BME280;65257;52.104;4.268;2023-07-09T05:24:10;56264.09;;;-142.31;100.00
76424;BME280;65257;52.104;4.268;2023-07-09T05:26:39;56264.09;;;-142.31;100.00
76424;BME280;65257;52.104;4.268;2023-07-09T05:29:08;56264.09;;;-142.31;100.00
76424;BME280;65257;52.104;4.268;2023-07-09T05:31:34;56264.09;;;-142.31;100.00
76424;BME280;65257;52.104;4.268;2023-07-09T05:34:05;56264.09;;;-142.31;100.00
76424;BME280;65257;52.104;4.268;2023-07-09T05:36:35;56264.09;;;-142.31;100.00
76424;BME280;65257;52.104;4.268;2023-07-09T05:39:00;56264.09;;;-142.31;100.00
76424;BME280;65257;52.104;4.268;2023-07-09T05:41:26;56264.09;;;-142.31;100.00
76424;BME280;65257;52.104;4.268;2023-07-09T05:43:58;56264.09;;;-142.31;100.00
76424;BME280;65257;52.104;4.268;2023-07-09T05:46:27;56264.09;;;-142.31;100.00
76424;BME280;65257;52.104;4.268;2023-07-09T05:48:52;56264.09;;;-142.31;100.00
76424;BME280;65257;52.104;4.268;2023-07-09T05:51:19;56264.09;;;-142.31;100.00
76424;BME280;65257;52.104;4.268;2023-07-09T05:53:46;56264.09;;;-142.31;100.00
76424;BME280;65257;52.104;4.268;2023-07-09T05:56:13;56264.09;;;-142.31;100.00
76424;BME280;65257;52.104;4.268;2023-07-09T05:58:45;56264.09;;;-142.31;100.00
76424;BME280;65257;52.104;4.268;2023-07-09T06:01:13;56264.09;;;-142.31;100.00
76424;BME280;65257;52.104;4.268;2023-07-09T06:03:42;56264.09;;;-142.31;100.00
76424;BME280;65257;52.104;4.268;2023-07-09T06:06:08;56264.09;;;-142.31;100.00
76424;BME280;65257;52.104;4.268;2023-07-09T06:08:35;56264.09;;;-142.31;100.00
76424;BME280;65257;52.104;4.268;2023-07-09T06:11:03;56264.09;;;-142.31;100.00
76424;BME280;65257;52.104;4.268;2023-07-09T06:13:31;56264.09;;;-142.31;100.00
76424;BME280;65257;52.104;4.268;2023-07-09T06:16:00;56264.09;;;-142.31;100.00
76424;BME280;65257;52.104;4.268;2023-07-09T06:18:27;56264.09;;;-142.31;100.00
76424;BME280;65257;52.104;4.268;2023-07-09T06:21:03;56264.09;;;-142.31;100.00
76424;BME280;65257;52.104;4.268;2023-07-09T06:24:02;56264.09;;;-142.31;100.00
76424;BME280;65257;52.104;4.268;2023-07-09T06:26:50;56264.09;;;-142.31;100.00
76424;BME280;65257;52.104;4.268;2023-07-09T06:29:29;56264.09;;;-142.31;100.00
76424;BME280;65257;52.104;4.268;2023-07-09T06:31:59;56264.09;;;-142.31;100.00
76424;BME280;65257;52.104;4.268;2023-07-09T06:34:25;56264.09;;;-142.31;100.00
76424;BME280;65257;52.104;4.268;2023-07-09T06:36:50;56264.09;;;-142.31;100.00
76424;BME280;65257;52.104;4.268;2023-07-09T06:39:15;56264.09;;;-142.31;100.00
76424;BME280;65257;52.104;4.268;2023-07-09T06:41:46;56264.09;;;-142.31;100.00
76424;BME280;65257;52.104;4.268;2023-07-09T06:44:12;56264.09;;;-142.31;100.00
76424;BME280;65257;52.104;4.268;2023-07-09T06:46:42;56264.09;;;-142.31;100.00
76424;BME280;65257;52.104;4.268;2023-07-09T06:49:10;56264.09;;;-142.31;100.00
76424;BME280;65257;52.104;4.268;2023-07-09T06:51:36;56264.09;;;-142.31;100.00
76424;BME280;65257;52.104;4.268;2023-07-09T06:54:04;56264.09;;;-142.31;100.00
76424;BME280;65257;52.104;4.268;2023-07-09T06:56:35;56264.09;;;-142.31;100.00
76424;BME280;65257;52.104;4.268;2023-07-09T06:59:02;56264.09;;;-142.31;100.00
76424;BME280;65257;52.104;4.268;2023-07-09T07:01:27;56264.09;;;-142.31;100.00
76424;BME280;65257;52.104;4.268;2023-07-09T07:03:57;56264.09;;;-142.31;100.00
76424;BME280;65257;52.104;4.268;2023-07-09T07:06:23;56264.09;;;-142.31;100.00
76424;BME280;65257;52.104;4.268;2023-07-09T07:08:55;56264.09;;;-142.31;100.00
76424;BME280;65257;52.104;4.268;2023-07-09T07:11:36;56264.09;;;-142.31;100.00
76424;BME280;65257;52.104;4.268;2023-07-09T07:14:13;56264.09;;;-142.31;100.00
76424;BME280;65257;52.104;4.268;2023-07-09T07:16:39;56264.09;;;-142.31;100.00
76424;BME280;65257;52.104;4.268;2023-07-09T07:19:05;56264.09;;;-142.31;100.00
76424;BME280;65257;52.104;4.268;2023-07-09T07:21:34;56264.09;;;-142.31;100.00
76424;BME280;65257;52.104;4.268;2023-07-09T07:24:06;56264.09;;;-142.31;100.00
76424;BME280;65257;52.104;4.268;2023-07-09T07:26:32;56264.09;;;-142.31;100.00
76424;BME280;65257;52.104;4.268;2023-07-09T07:29:05;56264.09;;;-142.31;100.00
76424;BME280;65257;52.104;4.268;2023-07-09T07:31:34;56264.09;;;-142.31;100.00
76424;BME280;65257;52.104;4.268;2023-07-09T07:34:01;56264.09;;;-142.31;100.00
76424;BME280;65257;52.104;4.268;2023-07-09T07:36:31;56264.09;;;-142.31;100.00
76424;BME280;65257;52.104;4.268;2023-07-09T07:38:57;56264.09;;;-142.31;100.00
76424;BME280;65257;52.104;4.268;2023-07-09T07:41:23;56264.09;;;-142.31;100.00
76424;BME280;65257;52.104;4.268;2023-07-09T07:43:48;56264.09;;;-142.31;100.00
76424;BME280;65257;52.104;4.268;2023-07-09T07:46:14;56264.09;;;-142.31;100.00
76424;BME280;65257;52.104;4.268;2023-07-09T07:48:39;56264.09;;;-142.31;100.00
76424;BME280;65257;52.104;4.268;2023-07-09T07:51:05;56264.09;;;-142.31;100.00
76424;BME280;65257;52.104;4.268;2023-07-09T07:53:33;56264.09;;;-142.31;100.00
76424;BME280;65257;52.104;4.268;2023-07-09T07:55:59;56264.09;;;-142.31;100.00
76424;BME280;65257;52.104;4.268;2023-07-09T07:58:28;56264.09;;;-142.31;100.00
76424;BME280;65257;52.104;4.268;2023-07-09T08:00:57;56264.09;;;-142.31;100.00
76424;BME280;65257;52.104;4.268;2023-07-09T08:03:29;56264.09;;;-142.31;100.00
76424;BME280;65257;52.104;4.268;2023-07-09T08:05:54;56264.09;;;-142.31;100.00
76424;BME280;65257;52.104;4.268;2023-07-09T08:08:21;56264.09;;;-142.31;100.00
76424;BME280;65257;52.104;4.268;2023-07-09T08:10:49;56264.09;;;-142.31;100.00
76424;BME280;65257;52.104;4.268;2023-07-09T08:13:17;56264.09;;;-142.31;100.00
76424;BME280;65257;52.104;4.268;2023-07-09T08:15:48;56264.09;;;-142.31;100.00
76424;BME280;65257;52.104;4.268;2023-07-09T08:18:18;56264.09;;;-142.31;100.00
76424;BME280;65257;52.104;4.268;2023-07-09T08:20:44;56264.09;;;-142.31;100.00
76424;BME280;65257;52.104;4.268;2023-07-09T08:23:10;56264.09;;;-142.31;100.00
76424;BME280;65257;52.104;4.268;2023-07-09T08:25:39;56264.09;;;-142.31;100.00
76424;BME280;65257;52.104;4.268;2023-07-09T08:28:08;56264.09;;;-142.31;100.00
76424;BME280;65257;52.104;4.268;2023-07-09T08:30:35;56264.09;;;-142.31;100.00
76424;BME280;65257;52.104;4.268;2023-07-09T08:33:01;56264.09;;;-142.31;100.00
76424;BME280;65257;52.104;4.268;2023-07-09T08:35:26;56264.09;;;-142.31;100.00
76424;BME280;65257;52.104;4.268;2023-07-09T08:37:56;56264.09;;;-142.31;100.00
76424;BME280;65257;52.104;4.268;2023-07-09T08:40:26;56264.09;;;-142.31;100.00
76424;BME280;65257;52.104;4.268;2023-07-09T08:42:59;56264.09;;;-142.31;100.00
76424;BME280;65257;52.104;4.268;2023-07-09T08:48:06;56264.09;;;-142.31;100.00
76424;BME280;65257;52.104;4.268;2023-07-09T08:50:59;56264.09;;;-142.31;100.00
76424;BME280;65257;52.104;4.268;2023-07-09T08:53:42;56264.09;;;-142.31;100.00
76424;BME280;65257;52.104;4.268;2023-07-09T08:56:13;56264.09;;;-142.31;100.00
76424;BME280;65257;52.104;4.268;2023-07-09T08:58:40;56264.09;;;-142.31;100.00
76424;BME280;65257;52.104;4.268;2023-07-09T09:01:16;56264.09;;;-142.31;100.00
76424;BME280;65257;52.104;4.268;2023-07-09T09:04:08;56264.09;;;-142.31;100.00
76424;BME280;65257;52.104;4.268;2023-07-09T09:06:41;56264.09;;;-142.31;100.00
76424;BME280;65257;52.104;4.268;2023-07-09T09:11:45;56264.09;;;-142.31;100.00
76424;BME280;65257;52.104;4.268;2023-07-09T09:16:52;56264.09;;;-142.31;100.00
76424;BME280;65257;52.104;4.268;2023-07-09T09:19:37;56264.09;;;-142.31;100.00
76424;BME280;65257;52.104;4.268;2023-07-09T09:22:11;56264.09;;;-142.31;100.00
76424;BME280;65257;52.104;4.268;2023-07-09T09:25:20;56264.09;;;-142.31;100.00
76424;BME280;65257;52.104;4.268;2023-07-09T09:27:49;56264.09;;;-142.31;100.00
76424;BME280;65257;52.104;4.268;2023-07-09T09:30:18;56264.09;;;-142.31;100.00
76424;BME280;65257;52.104;4.268;2023-07-09T09:32:58;56264.09;;;-142.31;100.00
76424;BME280;65257;52.104;4.268;2023-07-09T09:35:35;56264.09;;;-142.31;100.00
76424;BME280;65257;52.104;4.268;2023-07-09T09:38:16;56264.09;;;-142.31;100.00
76424;BME280;65257;52.104;4.268;2023-07-09T09:40:42;56264.09;;;-142.31;100.00
76424;BME280;65257;52.104;4.268;2023-07-09T09:43:35;56264.09;;;-142.31;100.00
76424;BME280;65257;52.104;4.268;2023-07-09T09:46:06;56264.09;;;-142.31;100.00
76424;BME280;65257;52.104;4.268;2023-07-09T09:48:32;56264.09;;;-142.31;100.00
76424;BME280;65257;52.104;4.268;2023-07-09T09:51:04;56264.09;;;-142.31;100.00
76424;BME280;65257;52.104;4.268;2023-07-09T09:53:38;56264.09;;;-142.31;100.00
76424;BME280;65257;52.104;4.268;2023-07-09T09:56:09;56264.09;;;-142.31;100.00
76424;BME280;65257;52.104;4.268;2023-07-09T09:58:39;56264.09;;;-142.31;100.00
76424;BME280;65257;52.104;4.268;2023-07-09T10:01:17;56264.09;;;-142.31;100.00
76424;BME280;65257;52.104;4.268;2023-07-09T10:03:51;56264.09;;;-142.31;100.00
76424;BME280;65257;52.104;4.268;2023-07-09T10:06:43;56264.09;;;-142.31;100.00
76424;BME280;65257;52.104;4.268;2023-07-09T10:09:54;56264.09;;;-142.31;100.00
76424;BME280;65257;52.104;4.268;2023-07-09T10:18:54;56264.09;;;-142.31;100.00
76424;BME280;65257;52.104;4.268;2023-07-09T10:26:57;56264.09;;;-142.31;100.00
76424;BME280;65257;52.104;4.268;2023-07-09T10:32:53;56264.09;;;-142.31;100.00
76424;BME280;65257;52.104;4.268;2023-07-09T10:35:47;56264.09;;;-142.31;100.00
76424;BME280;65257;52.104;4.268;2023-07-09T10:41:25;56264.09;;;-142.31;100.00
76424;BME280;65257;52.104;4.268;2023-07-09T10:46:36;56264.09;;;-142.31;100.00
76424;BME280;65257;52.104;4.268;2023-07-09T10:49:03;56264.09;;;-142.31;100.00
76424;BME280;65257;52.104;4.268;2023-07-09T10:51:50;56264.09;;;-142.31;100.00
76424;BME280;65257;52.104;4.268;2023-07-09T10:55:36;56264.09;;;-142.31;100.00
76424;BME280;65257;52.104;4.268;2023-07-09T11:00:38;56264.09;;;-142.31;100.00
76424;BME280;65257;52.104;4.268;2023-07-09T11:03:29;56264.09;;;-142.31;100.00
76424;BME280;65257;52.104;4.268;2023-07-09T11:05:57;56264.09;;;-142.31;100.00
76424;BME280;65257;52.104;4.268;2023-07-09T11:08:37;56264.09;;;-142.31;100.00
76424;BME280;65257;52.104;4.268;2023-07-09T11:14:04;56264.09;;;-142.31;100.00
76424;BME280;65257;52.104;4.268;2023-07-09T11:16:39;56264.09;;;-142.31;100.00
76424;BME280;65257;52.104;4.268;2023-07-09T11:19:18;56264.09;;;-142.31;100.00
76424;BME280;65257;52.104;4.268;2023-07-09T11:22:14;56264.09;;;-142.31;100.00
76424;BME280;65257;52.104;4.268;2023-07-09T11:25:13;56264.09;;;-142.31;100.00
76424;BME280;65257;52.104;4.268;2023-07-09T11:28:13;56264.09;;;-142.31;100.00
76424;BME280;65257;52.104;4.268;2023-07-09T11:36:29;56264.09;;;-142.31;100.00
76424;BME280;65257;52.104;4.268;2023-07-09T11:38:55;56264.09;;;-142.31;100.00
76424;BME280;65257;52.104;4.268;2023-07-09T11:41:39;56264.09;;;-142.31;100.00
76424;BME280;65257;52.104;4.268;2023-07-09T11:44:14;56264.09;;;-142.31;100.00
76424;BME280;65257;52.104;4.268;2023-07-09T11:53:13;56264.09;;;-142.31;100.00
76424;BME280;65257;52.104;4.268;2023-07-09T11:55:49;56264.09;;;-142.31;100.00
76424;BME280;65257;52.104;4.268;2023-07-09T11:58:16;56264.09;;;-142.31;100.00
76424;BME280;65257;52.104;4.268;2023-07-09T12:00:55;56264.09;;;-142.31;100.00
76424;BME280;65257;52.104;4.268;2023-07-09T12:03:32;56264.09;;;-142.31;100.00
76424;BME280;65257;52.104;4.268;2023-07-09T12:06:01;56264.09;;;-142.31;100.00
76424;BME280;65257;52.104;4.268;2023-07-09T12:08:40;56264.09;;;-142.31;100.00
76424;BME280;65257;52.104;4.268;2023-07-09T12:11:30;56264.09;;;-142.31;100.00
76424;BME280;65257;52.104;4.268;2023-07-09T12:14:05;56264.09;;;-142.31;100.00
76424;BME280;65257;52.104;4.268;2023-07-09T12:16:39;56264.09;;;-142.31;100.00
76424;BME280;65257;52.104;4.268;2023-07-09T12:19:18;56264.09;;;-142.31;100.00
76424;BME280;65257;52.104;4.268;2023-07-09T12:21:46;56264.09;;;-142.31;100.00
76424;BME280;65257;52.104;4.268;2023-07-09T12:24:37;56264.09;;;-142.31;100.00
76424;BME280;65257;52.104;4.268;2023-07-09T12:27:22;56264.09;;;-142.31;100.00
76424;BME280;65257;52.104;4.268;2023-07-09T12:29:56;56264.09;;;-142.31;100.00
76424;BME280;65257;52.104;4.268;2023-07-09T12:32:24;56264.09;;;-142.31;100.00
76424;BME280;65257;52.104;4.268;2023-07-09T12:35:14;56264.09;;;-142.31;100.00
76424;BME280;65257;52.104;4.268;2023-07-09T12:37:42;56264.09;;;-142.31;100.00
76424;BME280;65257;52.104;4.268;2023-07-09T12:40:14;56264.09;;;-142.31;100.00
76424;BME280;65257;52.104;4.268;2023-07-09T12:42:56;56264.09;;;-142.31;100.00
76424;BME280;65257;52.104;4.268;2023-07-09T12:47:53;101620.19;;;21.91;100.00
76424;BME280;65257;52.104;4.268;2023-07-09T12:50:35;101619.34;;;21.97;100.00
76424;BME280;65257;52.104;4.268;2023-07-09T12:53:22;101616.75;;;21.95;100.00
76424;BME280;65257;52.104;4.268;2023-07-09T12:55:55;101610.59;;;21.76;100.00
76424;BME280;65257;52.104;4.268;2023-07-09T12:58:41;101608.06;;;21.90;100.00
76424;BME280;65257;52.104;4.268;2023-07-09T13:01:17;101610.66;;;21.90;100.00
76424;BME280;65257;52.104;4.268;2023-07-09T13:03:54;101624.53;;;21.91;100.00
76424;BME280;65257;52.104;4.268;2023-07-09T13:06:35;101628.00;;;21.96;100.00
76424;BME280;65257;52.104;4.268;2023-07-09T13:09:22;101620.22;;;21.94;100.00
76424;BME280;65257;52.104;4.268;2023-07-09T13:11:48;101614.03;;;21.63;100.00
76424;BME280;65257;52.104;4.268;2023-07-09T13:14:26;101601.88;;;21.59;100.00
76424;BME280;65257;52.104;4.268;2023-07-09T13:17:02;101598.41;;;21.72;100.00
76424;BME280;65257;52.104;4.268;2023-07-09T13:19:32;101614.94;;;21.67;100.00
76424;BME280;65257;52.104;4.268;2023-07-09T13:22:04;101631.41;;;21.70;100.00
76424;BME280;65257;52.104;4.268;2023-07-09T13:24:32;101634.84;;;21.48;100.00
76424;BME280;65257;52.104;4.268;2023-07-09T13:27:07;101645.16;;;21.21;100.00
76424;BME280;65257;52.104;4.268;2023-07-09T13:29:36;101646.88;;;21.22;100.00
76424;BME280;65257;52.104;4.268;2023-07-09T13:32:09;101646.00;;;21.21;100.00
76424;BME280;65257;52.104;4.268;2023-07-09T13:34:38;101643.44;;;21.32;100.00
76424;BME280;65257;52.104;4.268;2023-07-09T13:37:05;101632.84;;;20.97;100.00
76424;BME280;65257;52.104;4.268;2023-07-09T13:39:34;101619.06;;;21.12;100.00
76424;BME280;65257;52.104;4.268;2023-07-09T13:42:02;101595.63;;;21.13;100.00